createdAt,value
2022-11-06T00:01:07.557Z,14.25
2022-11-06T00:03:36.121Z,14.32
2022-11-06T00:06:26.995Z,14.33
2022-11-06T00:08:54.889Z,14.34
2022-11-06T00:11:22.511Z,14.23
2022-11-06T00:13:52.426Z,14.24
2022-11-06T00:16:21.881Z,14.26
2022-11-06T00:18:50.670Z,14.22
2022-11-06T00:21:21.216Z,14.11
2022-11-06T00:23:49.186Z,14.06
2022-11-06T00:26:25.826Z,14.10
2022-11-06T00:28:54.135Z,14.17
2022-11-06T00:31:24.898Z,14.05
2022-11-06T00:33:53.941Z,13.87
2022-11-06T00:36:24.024Z,13.86
2022-11-06T00:38:53.609Z,13.86
2022-11-06T00:41:21.481Z,13.95
2022-11-06T00:43:50.979Z,13.89
2022-11-06T00:46:18.888Z,13.92
2022-11-06T00:48:46.609Z,13.87
2022-11-06T00:51:22.363Z,13.88
2022-11-06T00:53:59.397Z,13.86
2022-11-06T00:56:27.953Z,13.77
2022-11-06T00:58:56.051Z,13.73
2022-11-06T01:01:29.915Z,13.63
2022-11-06T01:04:02.512Z,13.52
2022-11-06T01:06:33.626Z,13.22
2022-11-06T01:09:12.290Z,13.23
2022-11-06T01:12:13.634Z,13.15
2022-11-06T01:14:42.675Z,13.08
2022-11-06T01:17:13.637Z,13.06
2022-11-06T01:19:42.574Z,13.16
2022-11-06T01:22:13.117Z,13.18
2022-11-06T01:24:40.519Z,13.20
2022-11-06T01:29:56.142Z,13.34
2022-11-06T01:32:23.658Z,13.33
2022-11-06T01:34:52.108Z,13.34
2022-11-06T01:37:26.739Z,13.23
2022-11-06T01:39:56.853Z,13.25
2022-11-06T01:42:31.727Z,13.28
2022-11-06T01:45:20.587Z,13.29
2022-11-06T01:47:48.893Z,12.98
2022-11-06T01:50:22.086Z,12.93
2022-11-06T01:52:54.490Z,13.05
2022-11-06T01:55:26.801Z,13.10
2022-11-06T01:57:55.663Z,13.07
2022-11-06T02:00:23.217Z,12.99
2022-11-06T02:02:52.401Z,12.94
2022-11-06T02:05:20.089Z,13.05
2022-11-06T02:07:48.366Z,13.03
2022-11-06T02:10:15.906Z,12.91
2022-11-06T02:12:56.083Z,12.82
2022-11-06T02:15:38.701Z,12.78
2022-11-06T02:18:34.022Z,12.82
2022-11-06T02:21:19.898Z,12.50
2022-11-06T02:24:21.319Z,12.48
2022-11-06T02:27:12.162Z,12.14
2022-11-06T02:29:48.151Z,12.12
2022-11-06T02:32:44.706Z,11.95
2022-11-06T02:35:30.182Z,11.93
2022-11-06T02:38:26.558Z,11.96
2022-11-06T02:40:59.245Z,11.91
2022-11-06T02:43:37.711Z,11.84
2022-11-06T02:46:27.197Z,11.81
2022-11-06T02:49:09.976Z,11.73
2022-11-06T02:51:44.237Z,11.77
2022-11-06T02:54:12.910Z,11.79
2022-11-06T02:56:46.335Z,11.75
2022-11-06T02:59:38.135Z,11.72
2022-11-06T03:02:30.496Z,11.90
2022-11-06T03:05:30.499Z,11.82
2022-11-06T03:08:37.646Z,11.86
2022-11-06T03:11:28.027Z,11.91
2022-11-06T03:14:11.462Z,11.70
2022-11-06T03:17:09.343Z,11.99
2022-11-06T03:19:49.717Z,11.89
2022-11-06T03:22:26.863Z,11.86
2022-11-06T03:25:08.017Z,12.02
2022-11-06T03:27:52.367Z,12.12
2022-11-06T03:30:20.200Z,12.16
2022-11-06T03:32:51.407Z,12.15
2022-11-06T03:35:40.285Z,12.20
2022-11-06T03:38:23.793Z,12.24
2022-11-06T03:41:01.158Z,12.22
2022-11-06T03:43:47.585Z,12.24
2022-11-06T03:46:21.087Z,12.29
2022-11-06T03:48:56.985Z,12.34
2022-11-06T03:51:35.263Z,12.29
2022-11-06T03:54:13.067Z,12.40
2022-11-06T03:57:02.030Z,12.36
2022-11-06T03:59:37.349Z,12.48
2022-11-06T04:02:05.086Z,12.54
2022-11-06T04:04:42.722Z,12.66
2022-11-06T04:07:14.830Z,12.72
2022-11-06T04:10:06.314Z,12.74
2022-11-06T04:13:01.711Z,12.66
2022-11-06T04:15:33.922Z,12.76
2022-11-06T04:18:01.870Z,12.78
2022-11-06T04:21:02.735Z,12.85
2022-11-06T04:24:25.769Z,12.80
2022-11-06T04:27:07.438Z,12.72
2022-11-06T04:30:04.222Z,12.69
2022-11-06T04:33:13.604Z,12.60
2022-11-06T04:35:50.588Z,12.70
2022-11-06T04:38:53.436Z,12.72
2022-11-06T04:41:39.003Z,12.77
2022-11-06T04:44:40.547Z,12.85
2022-11-06T04:47:18.530Z,12.69
2022-11-06T04:49:49.588Z,12.70
2022-11-06T04:52:24.079Z,12.75
2022-11-06T04:54:53.956Z,12.59
2022-11-06T04:57:23.768Z,12.65
2022-11-06T04:59:51.732Z,12.58
2022-11-06T05:02:19.708Z,12.55
2022-11-06T05:04:50.383Z,12.62
2022-11-06T05:07:18.603Z,12.58
2022-11-06T05:09:46.512Z,12.23
2022-11-06T05:12:14.131Z,12.18
2022-11-06T05:14:41.696Z,12.24
2022-11-06T05:17:09.111Z,11.99
2022-11-06T05:19:36.828Z,11.89
2022-11-06T05:22:22.882Z,11.67
2022-11-06T05:24:50.183Z,11.53
2022-11-06T05:27:17.877Z,11.54
2022-11-06T05:29:45.455Z,11.70
2022-11-06T05:32:12.893Z,11.65
2022-11-06T05:34:42.715Z,11.44
2022-11-06T05:37:10.169Z,11.46
2022-11-06T05:39:41.614Z,11.40
2022-11-06T05:42:09.591Z,11.39
2022-11-06T05:44:47.167Z,11.36
2022-11-06T05:47:15.947Z,11.27
2022-11-06T05:49:43.422Z,11.13
2022-11-06T05:52:11.112Z,10.95
2022-11-06T05:54:38.975Z,10.95
2022-11-06T05:57:07.286Z,10.89
2022-11-06T05:59:36.071Z,10.73
2022-11-06T06:02:12.190Z,10.79
2022-11-06T06:04:40.007Z,10.78
2022-11-06T06:07:07.770Z,10.79
2022-11-06T06:09:35.738Z,10.71
2022-11-06T06:12:03.654Z,10.73
2022-11-06T06:14:37.308Z,10.70
2022-11-06T06:17:04.912Z,10.82
2022-11-06T06:19:35.702Z,10.58
2022-11-06T06:22:03.251Z,10.51
2022-11-06T06:24:30.994Z,10.56
2022-11-06T06:26:58.774Z,10.41
2022-11-06T06:29:26.093Z,10.56
2022-11-06T06:31:53.877Z,10.42
2022-11-06T06:34:23.441Z,10.41
2022-11-06T06:36:52.417Z,10.63
2022-11-06T06:39:21.133Z,10.79
2022-11-06T06:41:50.314Z,10.77
2022-11-06T06:44:18.605Z,10.72
2022-11-06T06:46:46.355Z,10.76
2022-11-06T06:49:14.301Z,10.82
2022-11-06T06:51:42.613Z,10.92
2022-11-06T06:54:10.520Z,10.94
2022-11-06T06:56:39.277Z,11.04
2022-11-06T06:59:07.793Z,10.88
2022-11-06T07:01:38.334Z,11.12
2022-11-06T07:04:14.792Z,11.29
2022-11-06T07:06:44.860Z,11.11
2022-11-06T07:09:12.749Z,11.29
2022-11-06T07:11:44.068Z,11.46
2022-11-06T07:14:11.688Z,11.50
2022-11-06T07:16:39.640Z,11.52
2022-11-06T07:19:09.214Z,11.52
2022-11-06T07:21:38.133Z,11.57
2022-11-06T07:24:06.313Z,11.93
2022-11-06T07:26:34.177Z,11.97
2022-11-06T07:29:02.947Z,12.48
2022-11-06T07:31:33.387Z,12.59
2022-11-06T07:34:01.154Z,12.87
2022-11-06T07:36:28.840Z,13.02
2022-11-06T07:38:56.459Z,13.14
2022-11-06T07:41:24.393Z,13.14
2022-11-06T07:43:51.969Z,13.25
2022-11-06T07:46:19.945Z,13.53
2022-11-06T07:48:48.786Z,13.41
2022-11-06T07:51:16.168Z,13.73
2022-11-06T07:53:44.847Z,13.28
2022-11-06T07:56:13.474Z,13.19
2022-11-06T07:58:42.804Z,13.55
2022-11-06T08:01:20.558Z,13.52
2022-11-06T08:03:48.858Z,13.55
2022-11-06T08:06:16.555Z,13.75
2022-11-06T08:08:44.232Z,13.87
2022-11-06T08:11:13.192Z,13.93
2022-11-06T08:13:40.838Z,14.09
2022-11-06T08:16:14.973Z,14.20
2022-11-06T08:18:43.183Z,14.35
2022-11-06T08:21:13.374Z,14.28
2022-11-06T08:23:41.435Z,14.34
2022-11-06T08:26:09.077Z,14.42
2022-11-06T08:28:39.402Z,14.59
2022-11-06T08:31:08.478Z,14.54
2022-11-06T08:33:37.749Z,14.80
2022-11-06T08:36:19.103Z,14.81
2022-11-06T08:38:49.866Z,15.09
2022-11-06T08:41:26.271Z,15.12
2022-11-06T08:43:53.762Z,15.21
2022-11-06T08:46:21.362Z,15.25
2022-11-06T08:48:57.511Z,15.52
2022-11-06T08:51:25.353Z,15.64
2022-11-06T08:53:53.322Z,15.80
2022-11-06T08:56:22.380Z,15.87
2022-11-06T08:58:54.452Z,15.77
2022-11-06T09:01:27.247Z,15.93
2022-11-06T09:03:55.147Z,16.10
2022-11-06T09:06:25.642Z,16.16
2022-11-06T09:08:53.619Z,16.20
2022-11-06T09:11:24.713Z,16.47
2022-11-06T09:13:52.403Z,16.58
2022-11-06T09:16:19.824Z,16.77
2022-11-06T09:18:47.733Z,16.91
2022-11-06T09:21:15.427Z,17.04
2022-11-06T09:23:44.646Z,17.15
2022-11-06T09:26:12.055Z,17.31
2022-11-06T09:28:39.242Z,17.31
2022-11-06T09:31:07.730Z,17.47
2022-11-06T09:33:36.196Z,17.55
2022-11-06T09:36:10.307Z,17.70
2022-11-06T09:38:38.191Z,17.56
2022-11-06T09:41:06.728Z,17.77
2022-11-06T09:46:41.286Z,17.87
2022-11-06T09:49:21.458Z,18.12
2022-11-06T09:52:08.600Z,18.27
2022-11-06T09:55:05.650Z,18.42
2022-11-06T09:57:55.474Z,18.50
2022-11-06T10:00:24.571Z,18.46
2022-11-06T10:03:06.582Z,18.63
2022-11-06T10:05:41.987Z,18.62
2022-11-06T10:08:23.527Z,18.72
2022-11-06T10:11:07.633Z,18.84
2022-11-06T10:14:16.998Z,18.93
2022-11-06T10:16:55.947Z,19.03
2022-11-06T10:19:34.073Z,19.15
2022-11-06T10:22:35.312Z,19.31
2022-11-06T10:25:20.294Z,19.44
2022-11-06T10:28:05.328Z,19.61
2022-11-06T10:30:46.201Z,19.79
2022-11-06T10:33:43.046Z,19.93
2022-11-06T10:36:22.062Z,19.88
2022-11-06T10:38:51.395Z,19.90
2022-11-06T10:41:39.579Z,20.01
2022-11-06T10:44:15.228Z,20.06
2022-11-06T10:47:26.247Z,20.13
2022-11-06T10:49:59.437Z,20.22
2022-11-06T10:52:59.146Z,20.34
2022-11-06T10:56:10.789Z,20.40
2022-11-06T10:58:39.007Z,20.49
2022-11-06T11:01:10.049Z,20.62
2022-11-06T11:03:42.231Z,20.72
2022-11-06T11:06:09.997Z,20.82
2022-11-06T11:08:43.699Z,20.83
2022-11-06T11:11:13.991Z,20.94
2022-11-06T11:13:49.039Z,20.99
2022-11-06T11:16:24.226Z,21.04
2022-11-06T11:18:52.769Z,21.14
2022-11-06T11:21:28.263Z,21.21
2022-11-06T11:24:01.822Z,21.20
2022-11-06T11:26:31.616Z,21.26
2022-11-06T11:29:12.389Z,21.29
2022-11-06T11:31:40.450Z,21.37
2022-11-06T11:34:18.227Z,21.44
2022-11-06T11:36:58.902Z,21.48
2022-11-06T11:39:35.950Z,21.44
2022-11-06T11:42:32.493Z,21.47
2022-11-06T11:45:09.887Z,21.39
2022-11-06T11:47:40.723Z,21.44
2022-11-06T11:50:25.021Z,21.43
2022-11-06T11:53:16.157Z,21.36
2022-11-06T11:55:49.611Z,21.38
2022-11-06T11:58:23.595Z,21.37
2022-11-06T12:00:54.492Z,21.36
2022-11-06T12:03:26.011Z,21.36
2022-11-06T12:05:55.201Z,21.34
2022-11-06T12:08:28.779Z,21.34
2022-11-06T12:11:03.679Z,21.34
2022-11-06T12:13:31.385Z,21.31
2022-11-06T12:16:14.149Z,21.33
2022-11-06T12:18:48.667Z,21.36
2022-11-06T12:21:31.041Z,21.29
2022-11-06T12:24:07.363Z,21.23
2022-11-06T12:26:46.988Z,21.21
2022-11-06T12:29:21.166Z,21.17
2022-11-06T12:31:52.828Z,21.21
2022-11-06T12:34:28.488Z,21.20
2022-11-06T12:37:17.369Z,21.25
2022-11-06T12:39:56.244Z,21.33
2022-11-06T12:42:30.648Z,21.38
2022-11-06T12:44:58.387Z,21.43
2022-11-06T12:48:03.725Z,21.34
2022-11-06T12:50:48.720Z,21.37
2022-11-06T12:53:34.690Z,21.40
2022-11-06T12:56:19.626Z,21.33
2022-11-06T12:59:07.707Z,21.29
2022-11-06T13:01:46.836Z,21.28
2022-11-06T13:04:23.612Z,21.20
2022-11-06T13:07:00.008Z,21.17
2022-11-06T13:09:37.185Z,21.24
2022-11-06T13:12:19.351Z,21.23
2022-11-06T13:15:11.796Z,21.19
2022-11-06T13:17:48.815Z,21.24
2022-11-06T13:20:31.869Z,21.15
2022-11-06T13:23:25.930Z,21.06
2022-11-06T13:26:02.344Z,20.99
2022-11-06T13:28:50.159Z,21.01
2022-11-06T13:31:23.453Z,21.01
2022-11-06T13:33:55.070Z,21.00
2022-11-06T13:36:24.718Z,21.00
2022-11-06T13:39:01.040Z,21.04
2022-11-06T13:41:30.880Z,21.06
2022-11-06T13:44:08.107Z,21.12
2022-11-06T13:46:59.634Z,21.21
2022-11-06T13:49:47.654Z,21.21
2022-11-06T13:52:38.181Z,21.30
2022-11-06T13:55:06.139Z,21.39
2022-11-06T13:57:52.819Z,21.50
2022-11-06T14:00:24.364Z,21.56
2022-11-06T14:03:17.831Z,21.64
2022-11-06T14:05:54.638Z,21.67
2022-11-06T14:08:32.023Z,21.69
2022-11-06T14:11:16.470Z,21.71
2022-11-06T14:13:59.991Z,21.72
2022-11-06T14:16:31.445Z,21.72
2022-11-06T14:19:04.654Z,21.75
2022-11-06T14:21:38.590Z,21.75
2022-11-06T14:24:29.667Z,21.77
2022-11-06T14:26:58.037Z,21.77
2022-11-06T14:29:28.747Z,21.81
2022-11-06T14:32:03.857Z,21.83
2022-11-06T14:34:34.146Z,21.82
2022-11-06T14:37:20.972Z,21.80
2022-11-06T14:40:00.937Z,21.78
2022-11-06T14:42:34.290Z,21.78
2022-11-06T14:45:21.212Z,21.73
2022-11-06T14:47:53.568Z,21.72
2022-11-06T14:50:36.125Z,21.67
2022-11-06T14:53:17.830Z,21.68
2022-11-06T14:55:59.258Z,21.69
2022-11-06T14:59:02.569Z,21.67
2022-11-06T15:01:36.327Z,21.59
2022-11-06T15:04:20.424Z,21.59
2022-11-06T15:06:50.850Z,21.57
2022-11-06T15:09:24.345Z,21.56
2022-11-06T15:12:00.580Z,21.56
2022-11-06T15:14:30.928Z,21.55
2022-11-06T15:17:07.389Z,21.55
2022-11-06T15:19:41.934Z,21.54
2022-11-06T15:22:13.750Z,21.53
2022-11-06T15:25:04.155Z,21.53
2022-11-06T15:27:43.000Z,21.53
2022-11-06T15:30:17.859Z,21.56
2022-11-06T15:32:48.595Z,21.60
2022-11-06T15:35:28.480Z,21.62
2022-11-06T15:38:20.776Z,21.64
2022-11-06T15:40:58.500Z,21.62
2022-11-06T15:43:34.137Z,21.59
2022-11-06T15:46:30.126Z,21.58
2022-11-06T15:49:21.220Z,21.53
2022-11-06T15:52:02.015Z,21.50
2022-11-06T15:54:43.880Z,21.48
2022-11-06T15:57:26.800Z,21.46
2022-11-06T16:00:18.422Z,21.42
2022-11-06T16:03:01.075Z,21.42
2022-11-06T16:05:31.495Z,21.42
2022-11-06T16:08:00.897Z,21.43
2022-11-06T16:10:31.051Z,21.43
2022-11-06T16:13:02.838Z,21.43
2022-11-06T16:15:43.431Z,21.39
2022-11-06T16:18:42.086Z,21.32
2022-11-06T16:21:20.721Z,21.24
2022-11-06T16:23:55.716Z,21.20
2022-11-06T16:26:35.980Z,21.13
2022-11-06T16:29:36.122Z,21.07
2022-11-06T16:32:12.800Z,21.00
2022-11-06T16:34:45.702Z,20.96
2022-11-06T16:37:18.456Z,20.89
2022-11-06T16:39:54.488Z,20.85
2022-11-06T16:42:29.940Z,20.81
2022-11-06T16:45:13.674Z,20.78
2022-11-06T16:47:48.710Z,20.73
2022-11-06T16:50:45.675Z,20.69
2022-11-06T16:53:22.228Z,20.55
2022-11-06T16:56:14.675Z,20.51
2022-11-06T16:59:10.565Z,20.44
2022-11-06T17:01:42.550Z,20.39
2022-11-06T17:04:29.383Z,20.41
2022-11-06T17:06:59.364Z,20.36
2022-11-06T17:09:35.979Z,20.35
2022-11-06T17:12:05.715Z,20.31
2022-11-06T17:14:34.776Z,20.29
2022-11-06T17:17:03.460Z,20.21
2022-11-06T17:19:31.622Z,20.20
2022-11-06T17:21:59.273Z,20.16
2022-11-06T17:24:42.664Z,20.06
2022-11-06T17:27:10.981Z,20.05
2022-11-06T17:29:43.749Z,20.01
2022-11-06T17:32:11.924Z,20.00
2022-11-06T17:34:39.843Z,20.01
2022-11-06T17:37:11.450Z,19.94
2022-11-06T17:39:39.655Z,19.95
2022-11-06T17:42:07.988Z,19.93
2022-11-06T17:44:36.268Z,19.90
2022-11-06T17:47:07.558Z,19.89
2022-11-06T17:49:43.778Z,19.86
2022-11-06T17:52:16.201Z,19.85
2022-11-06T17:54:46.685Z,19.84
2022-11-06T17:57:22.780Z,19.80
2022-11-06T17:59:52.879Z,19.77
2022-11-06T18:02:40.661Z,19.69
2022-11-06T18:05:10.739Z,19.70
2022-11-06T18:07:39.609Z,19.66
2022-11-06T18:10:08.562Z,19.63
2022-11-06T18:12:39.696Z,19.63
2022-11-06T18:15:12.478Z,19.57
2022-11-06T18:17:42.295Z,19.46
2022-11-06T18:20:12.689Z,19.47
2022-11-06T18:22:40.834Z,19.44
2022-11-06T18:25:09.251Z,19.40
2022-11-06T18:27:37.087Z,19.38
2022-11-06T18:30:06.138Z,19.31
2022-11-06T18:32:34.096Z,19.27
2022-11-06T18:35:03.047Z,19.21
2022-11-06T18:37:31.058Z,19.19
2022-11-06T18:39:58.783Z,19.20
2022-11-06T18:42:26.528Z,19.18
2022-11-06T18:44:54.663Z,19.17
2022-11-06T18:47:22.322Z,19.11
2022-11-06T18:49:50.504Z,19.02
2022-11-06T18:52:51.565Z,18.98
2022-11-06T18:55:15.083Z,18.89
2022-11-06T18:57:49.088Z,18.87
2022-11-06T19:00:18.795Z,18.77
2022-11-06T19:02:48.602Z,18.80
2022-11-06T19:05:19.664Z,18.81
2022-11-06T19:07:51.944Z,18.61
2022-11-06T19:10:21.873Z,18.68
2022-11-06T19:12:56.200Z,18.54
2022-11-06T19:15:26.908Z,18.52
2022-11-06T19:17:55.441Z,18.59
2022-11-06T19:20:23.955Z,18.47
2022-11-06T19:22:53.506Z,18.53
2022-11-06T19:25:21.817Z,18.53
2022-11-06T19:27:49.893Z,18.48
2022-11-06T19:30:17.971Z,18.40
2022-11-06T19:32:45.953Z,18.41
2022-11-06T19:35:20.442Z,18.32
2022-11-06T19:37:47.917Z,18.35
2022-11-06T19:40:18.589Z,18.25
2022-11-06T19:42:46.549Z,18.20
2022-11-06T19:45:14.230Z,18.20
2022-11-06T19:47:42.095Z,18.26
2022-11-06T19:50:10.694Z,18.18
2022-11-06T19:52:42.100Z,18.18
2022-11-06T19:55:26.270Z,18.14
2022-11-06T19:57:58.479Z,18.12
2022-11-06T20:00:26.043Z,18.12
2022-11-06T20:02:59.302Z,18.14
2022-11-06T20:05:28.900Z,18.17
2022-11-06T20:07:56.671Z,18.19
2022-11-06T20:10:27.586Z,18.17
2022-11-06T20:12:55.235Z,18.14
2022-11-06T20:15:24.197Z,18.10
2022-11-06T20:17:52.679Z,18.12
2022-11-06T20:20:22.307Z,18.03
2022-11-06T20:22:50.091Z,18.04
2022-11-06T20:25:20.470Z,18.01
2022-11-06T20:27:48.179Z,18.08
2022-11-06T20:30:16.501Z,18.00
2022-11-06T20:32:48.189Z,18.04
2022-11-06T20:35:19.561Z,17.98
2022-11-06T20:37:47.677Z,18.01
2022-11-06T20:40:15.600Z,17.98
2022-11-06T20:42:43.483Z,17.92
2022-11-06T20:45:11.989Z,17.97
2022-11-06T20:47:39.918Z,17.92
2022-11-06T20:50:07.653Z,17.80
2022-11-06T20:52:35.600Z,17.88
2022-11-06T20:55:03.463Z,17.72
2022-11-06T20:57:31.540Z,17.64
2022-11-06T20:59:59.429Z,17.65
2022-11-06T21:02:30.365Z,17.61
2022-11-06T21:04:58.238Z,17.62
2022-11-06T21:07:27.490Z,17.67
2022-11-06T21:09:55.689Z,17.73
2022-11-06T21:12:25.426Z,17.71
2022-11-06T21:14:52.821Z,17.65
2022-11-06T21:17:20.689Z,17.59
2022-11-06T21:19:48.646Z,17.61
2022-11-06T21:22:18.278Z,17.57
2022-11-06T21:24:46.466Z,17.55
2022-11-06T21:27:14.255Z,17.47
2022-11-06T21:29:42.535Z,17.51
2022-11-06T21:32:10.270Z,17.56
2022-11-06T21:34:37.958Z,17.49
2022-11-06T21:37:08.606Z,17.48
2022-11-06T21:39:38.832Z,17.51
2022-11-06T21:42:06.556Z,17.52
2022-11-06T21:44:34.197Z,17.46
2022-11-06T21:47:01.786Z,17.46
2022-11-06T21:49:29.753Z,17.41
2022-11-06T21:52:17.457Z,17.35
2022-11-06T21:55:03.273Z,17.41
2022-11-06T21:57:31.226Z,17.38
2022-11-06T21:59:59.036Z,17.38
2022-11-06T22:02:27.004Z,17.39
2022-11-06T22:05:07.053Z,17.40
2022-11-06T22:07:34.930Z,17.28
2022-11-06T22:10:04.766Z,17.27
2022-11-06T22:12:37.426Z,17.31
2022-11-06T22:15:06.418Z,17.11
2022-11-06T22:17:38.177Z,17.13
2022-11-06T22:20:07.071Z,17.11
2022-11-06T22:22:36.785Z,16.89
2022-11-06T22:25:17.643Z,16.89
2022-11-06T22:27:47.143Z,16.97
2022-11-06T22:30:18.469Z,17.01
2022-11-06T22:32:56.906Z,16.99
2022-11-06T22:35:26.812Z,17.02
2022-11-06T22:37:54.813Z,17.00
2022-11-06T22:40:22.710Z,17.01
2022-11-06T22:42:51.765Z,16.98
2022-11-06T22:45:19.850Z,16.94
2022-11-06T22:47:49.051Z,16.85
2022-11-06T22:50:20.722Z,16.83
2022-11-06T22:52:53.686Z,16.79
2022-11-06T22:55:22.780Z,16.62
2022-11-06T22:57:51.244Z,16.69
2022-11-06T23:00:25.768Z,16.53
2022-11-06T23:02:53.672Z,16.57
2022-11-06T23:05:21.757Z,16.56
2022-11-06T23:07:50.238Z,16.63
2022-11-06T23:10:29.058Z,16.55
2022-11-06T23:12:58.081Z,16.54
2022-11-06T23:15:26.593Z,16.52
2022-11-06T23:17:54.674Z,16.61
2022-11-06T23:20:22.870Z,16.58
2022-11-06T23:22:51.601Z,16.66
2022-11-06T23:25:20.698Z,16.65
2022-11-06T23:27:50.358Z,16.58
2022-11-06T23:30:18.999Z,16.61
2022-11-06T23:32:47.716Z,16.49
2022-11-06T23:35:25.899Z,16.52
2022-11-06T23:37:56.512Z,16.51
2022-11-06T23:40:27.635Z,16.53
2022-11-06T23:42:57.774Z,16.57
2022-11-06T23:45:45.097Z,16.51
2022-11-06T23:48:14.410Z,16.41
2022-11-06T23:50:49.495Z,16.43
2022-11-06T23:53:18.231Z,16.35
2022-11-06T23:55:46.411Z,16.30
2022-11-06T23:58:14.443Z,16.25
